Airfield :
LOGIN :

Register | Disclaimer

   EN    FR    IT 

 










Legend :    VFR   Marginal VFR   IFR   Intensive IFR   Very Intensive IFR
Visi :
Ceiling :
>= 8 km
>= 3000ft
5 to 8 km
1000 to 3000 ft
1500m to 5 km
500 to 1000 ft
800 to 1500m
200 to 500 ft
< 800m
< 200 ft
Symbols :   Thunderstorms  Fog  Heavy snow  Heavy precipitations  Wind > 20 kt
SIGMETs :     Misc.  Thunderstorms  Icing  Turbulence  Mountain Waves  Volcanic Ashes







- Airport Elevation : 600 ft
- IATA code : VIE


LOWW - Vienna Schwechat

CURRENT METAR :
  • 242150Z 34005KT 9999 BKN050 16/08 Q1018 NOSIG

EXPIRED METARs :
  • 242120Z 34006KT 9999 BKN050 16/08 Q1018 NOSIG
  • 242050Z 34006KT 9999 BKN050 16/08 Q1018 NOSIG
  • 242020Z 34006KT 9999 SCT050 BKN070 17/08 Q1018 NOSIG
  • 241950Z 35004KT 9999 FEW050 SCT070 BKN130 16/08 Q1018 NOSIG
  • 241920Z 32005KT 9999 FEW050 SCT057 BKN090 17/08 Q1018 NOSIG

TAF TAF LOWW
Valid from the 24 at 21:00 until the 26 at 03:00 UTC


242015Z 2421/2603 33008KT 9999 FEW050 BKN080 TX21/2515Z TN12/2503Z
FM242300 34005KT 9999 -RA SCT030 OVC035
FM250700 34012KT 9999 SCT045 SCT060
PROB40
TEMPO 2518/2603 SHRA BKN030 FEW040TCU
No reported NOTAMs for that airfield.



MET'MAP, your aeronautical weather chart ! - Copyright ORBIFLY December 2007 - Disclaimer

ORBIFLY MET'MAP TEAM :

Programming & Development : Alexandra Zaïnal
Concept & Development : Baudouin d'Aumeries
Co-Development & Prog : Marc-Olivier Méhu
Technical & hardware support : Manuel Goepfert

Contact : metmap@orbifly.com




SOURCES & CREDITS :

   NOAA